createdAt,value
2022-08-09T00:00:00.880Z,2.58
2022-08-09T00:02:33.885Z,2.67
2022-08-09T00:06:19.335Z,2.97
2022-08-09T00:07:52.339Z,2.60
2022-08-09T00:10:24.485Z,2.38
2022-08-09T00:12:53.310Z,3.13
2022-08-09T00:15:26.790Z,2.78
2022-08-09T00:18:11.845Z,2.67
2022-08-09T00:20:42.510Z,2.47
2022-08-09T00:23:55.355Z,2.60
2022-08-09T00:26:05.388Z,3.28
2022-08-09T00:28:34.456Z,2.78
2022-08-09T00:31:55.820Z,3.20
2022-08-09T00:33:53.084Z,2.57
2022-08-09T00:36:29.702Z,2.88
2022-08-09T00:38:58.494Z,2.70
2022-08-09T00:44:15.386Z,2.50
2022-08-09T00:44:25.014Z,2.90
2022-08-09T00:46:55.810Z,2.70
2022-08-09T00:49:31.065Z,3.00
2022-08-09T00:52:05.302Z,3.20
2022-08-09T00:54:36.372Z,2.90
2022-08-09T00:57:10.471Z,3.30
2022-08-09T00:59:40.948Z,2.90
2022-08-09T01:02:13.625Z,2.85
2022-08-09T01:04:50.104Z,3.20
2022-08-09T01:07:37.840Z,3.33
2022-08-09T01:10:25.910Z,2.67
2022-08-09T01:13:04.183Z,2.87
2022-08-09T01:15:41.126Z,3.17
2022-08-09T01:18:29.690Z,3.28
2022-08-09T01:21:12.686Z,2.85
2022-08-09T01:24:03.012Z,3.15
2022-08-09T01:26:58.025Z,3.10
2022-08-09T01:29:41.034Z,3.13
2022-08-09T01:32:31.031Z,3.00
2022-08-09T01:35:06.977Z,3.40
2022-08-09T01:38:05.981Z,3.20
2022-08-09T01:40:28.393Z,2.90
2022-08-09T01:42:58.983Z,3.03
2022-08-09T01:45:29.316Z,3.10
2022-08-09T01:47:59.599Z,2.85
2022-08-09T01:50:36.632Z,3.15
2022-08-09T01:53:19.847Z,3.13
2022-08-09T01:55:49.175Z,3.60
2022-08-09T01:58:18.680Z,3.17
2022-08-09T02:00:54.326Z,3.58
2022-08-09T02:03:23.061Z,3.40
2022-08-09T02:06:04.110Z,3.40
2022-08-09T02:08:57.137Z,3.67
2022-08-09T02:11:43.463Z,3.25
2022-08-09T02:14:26.218Z,3.60
2022-08-09T02:16:59.912Z,3.78
2022-08-09T02:19:43.762Z,3.77
2022-08-09T02:22:17.733Z,4.10
2022-08-09T02:24:57.886Z,3.97
2022-08-09T02:27:57.397Z,4.00
2022-08-09T02:30:19.067Z,4.40
2022-08-09T02:32:49.187Z,4.83
2022-08-09T02:35:26.116Z,3.70
2022-08-09T02:38:11.654Z,4.18
2022-08-09T02:40:50.060Z,4.05
2022-08-09T02:43:21.175Z,3.97
2022-08-09T02:45:52.848Z,4.70
2022-08-09T02:48:31.005Z,4.22
2022-08-09T02:51:02.560Z,4.05
2022-08-09T02:53:34.352Z,4.20
2022-08-09T02:56:04.443Z,3.65
2022-08-09T02:58:36.709Z,3.90
2022-08-09T03:01:11.031Z,3.80
2022-08-09T03:04:13.205Z,4.45
2022-08-09T03:06:31.447Z,4.30
2022-08-09T03:09:02.241Z,4.00
2022-08-09T03:12:10.474Z,4.40
2022-08-09T03:14:26.533Z,4.03
2022-08-09T03:16:58.988Z,4.85
2022-08-09T03:19:59.161Z,4.60
2022-08-09T03:22:25.479Z,3.53
2022-08-09T03:25:06.277Z,4.17
2022-08-09T03:27:49.066Z,4.20
2022-08-09T03:30:30.208Z,4.53
2022-08-09T03:33:17.584Z,5.22
2022-08-09T03:36:13.261Z,5.22
2022-08-09T03:38:37.252Z,5.10
2022-08-09T03:41:09.711Z,4.40
2022-08-09T03:44:02.882Z,4.95
2022-08-09T03:46:31.247Z,5.00
2022-08-09T03:49:03.987Z,5.05
2022-08-09T03:51:55.622Z,5.60
2022-08-09T03:54:29.527Z,4.75
2022-08-09T03:57:00.102Z,5.50
2022-08-09T03:59:43.131Z,5.40
2022-08-09T04:02:15.282Z,5.88
2022-08-09T04:04:57.231Z,5.40
2022-08-09T04:07:47.924Z,4.90
2022-08-09T04:10:14.231Z,5.63
2022-08-09T04:12:49.880Z,4.97
2022-08-09T04:15:39.032Z,5.47
2022-08-09T04:18:08.473Z,5.67
2022-08-09T04:20:37.415Z,5.70
2022-08-09T04:23:09.698Z,5.82
2022-08-09T04:25:38.248Z,5.45
2022-08-09T04:28:06.578Z,5.57
2022-08-09T04:30:34.071Z,5.63
2022-08-09T04:33:01.745Z,5.53
2022-08-09T04:35:29.456Z,5.25
2022-08-09T04:38:03.688Z,5.22
2022-08-09T04:40:45.612Z,5.75
2022-08-09T04:43:15.989Z,5.77
2022-08-09T04:45:53.925Z,5.97
2022-08-09T04:48:23.851Z,5.63
2022-08-09T04:51:00.812Z,5.03
2022-08-09T04:53:31.346Z,5.22
2022-08-09T04:56:05.525Z,5.53
2022-08-09T04:58:33.955Z,5.20
2022-08-09T05:01:02.885Z,3.55
2022-08-09T05:03:43.061Z,3.88
2022-08-09T05:06:11.792Z,3.45
2022-08-09T05:08:51.018Z,4.50
2022-08-09T05:11:18.512Z,5.53
2022-08-09T05:13:48.524Z,4.85
2022-08-09T05:16:16.144Z,5.10
2022-08-09T05:18:57.210Z,5.10
2022-08-09T05:21:29.949Z,5.17
2022-08-09T05:24:01.867Z,4.75
2022-08-09T05:26:45.352Z,5.05
2022-08-09T05:29:17.724Z,4.90
2022-08-09T05:31:49.320Z,4.70
2022-08-09T05:34:30.055Z,4.67
2022-08-09T05:37:01.524Z,5.05
2022-08-09T05:39:36.199Z,4.95
2022-08-09T05:42:17.952Z,4.50
2022-08-09T05:44:58.397Z,4.20
2022-08-09T05:47:30.297Z,5.10
2022-08-09T05:50:26.087Z,4.60
2022-08-09T05:52:53.322Z,4.68
2022-08-09T05:55:23.472Z,5.13
2022-08-09T05:57:57.365Z,4.18
2022-08-09T06:00:26.395Z,4.40
2022-08-09T06:02:56.999Z,4.20
2022-08-09T06:05:50.311Z,4.60
2022-08-09T06:08:12.409Z,4.35
2022-08-09T06:10:41.355Z,4.30
2022-08-09T06:13:20.289Z,4.13
2022-08-09T06:15:50.954Z,4.03
2022-08-09T06:18:23.755Z,4.70
2022-08-09T06:20:54.531Z,4.65
2022-08-09T06:23:55.731Z,3.83
2022-08-09T06:26:14.239Z,4.40
2022-08-09T06:28:43.346Z,3.70
2022-08-09T06:31:11.226Z,3.72
2022-08-09T06:33:40.936Z,4.03
2022-08-09T06:36:09.471Z,3.53
2022-08-09T06:38:47.191Z,3.57
2022-08-09T06:41:20.471Z,3.17
2022-08-09T06:43:48.937Z,3.42
2022-08-09T06:46:39.821Z,3.60
2022-08-09T06:49:04.263Z,4.22
2022-08-09T06:51:33.560Z,3.57
2022-08-09T06:54:06.734Z,3.72
2022-08-09T06:56:45.475Z,3.42
2022-08-09T07:00:49.989Z,3.40
2022-08-09T07:02:04.335Z,4.03
2022-08-09T07:04:32.888Z,3.60
2022-08-09T07:07:01.085Z,3.17
2022-08-09T07:09:54.233Z,3.20
2022-08-09T07:12:21.978Z,3.67
2022-08-09T07:16:35.131Z,3.92
2022-08-09T07:18:01.900Z,2.80
2022-08-09T07:20:30.042Z,2.92
2022-08-09T07:22:59.230Z,2.58
2022-08-09T07:25:27.522Z,3.13
2022-08-09T07:27:57.867Z,3.22
2022-08-09T07:30:27.916Z,3.03
2022-08-09T07:33:00.371Z,2.80
2022-08-09T07:35:28.358Z,2.53
2022-08-09T07:37:59.493Z,2.28
2022-08-09T07:40:37.397Z,2.50
2022-08-09T07:43:16.786Z,2.83
2022-08-09T07:45:44.660Z,2.38
2022-08-09T07:48:25.359Z,2.20
2022-08-09T07:51:09.246Z,2.40
2022-08-09T07:54:04.863Z,2.08
2022-08-09T07:56:33.619Z,2.17
2022-08-09T07:59:10.500Z,2.30
2022-08-09T08:01:43.330Z,2.20
2022-08-09T08:04:20.871Z,2.15
2022-08-09T08:07:00.102Z,1.88
2022-08-09T08:09:45.176Z,2.03
2022-08-09T08:12:24.758Z,2.17
2022-08-09T08:14:58.400Z,2.35
2022-08-09T08:17:52.067Z,2.38
2022-08-09T08:20:15.369Z,2.53
2022-08-09T08:22:43.694Z,2.17
2022-08-09T08:25:16.437Z,2.85
2022-08-09T08:27:47.058Z,2.90
2022-08-09T08:30:19.241Z,2.75
2022-08-09T08:32:52.767Z,2.70
2022-08-09T08:35:22.818Z,2.20
2022-08-09T08:38:01.890Z,2.70
2022-08-09T08:40:37.028Z,2.40
2022-08-09T08:43:13.486Z,2.25
2022-08-09T08:45:53.425Z,2.47
2022-08-09T08:48:33.205Z,2.30
2022-08-09T08:51:01.299Z,3.22
2022-08-09T08:53:32.281Z,2.67
2022-08-09T08:56:06.269Z,2.50
2022-08-09T08:58:36.846Z,2.92
2022-08-09T09:01:08.881Z,2.00
2022-08-09T09:03:50.505Z,2.42
2022-08-09T09:06:19.459Z,2.20
2022-08-09T09:08:52.413Z,2.10
2022-08-09T09:11:21.717Z,2.17
2022-08-09T09:13:56.159Z,2.40
2022-08-09T09:16:30.693Z,1.92
2022-08-09T09:19:37.275Z,2.70
2022-08-09T09:22:05.310Z,1.95
2022-08-09T09:24:38.015Z,2.30
2022-08-09T09:27:08.775Z,2.80
2022-08-09T09:30:08.536Z,2.33
2022-08-09T09:32:32.335Z,2.03
2022-08-09T09:35:07.515Z,2.03
2022-08-09T09:37:37.756Z,2.25
2022-08-09T09:40:09.799Z,2.60
2022-08-09T09:42:39.122Z,2.20
2022-08-09T09:45:14.425Z,1.90
2022-08-09T09:47:58.410Z,1.70
2022-08-09T09:50:49.413Z,2.20
2022-08-09T09:53:20.936Z,1.90
2022-08-09T09:55:57.644Z,2.15
2022-08-09T09:58:47.021Z,2.58
2022-08-09T10:01:36.991Z,2.33
2022-08-09T10:04:16.057Z,2.05
2022-08-09T10:06:53.895Z,2.70
2022-08-09T10:09:24.072Z,2.05
2022-08-09T10:12:07.860Z,1.90
2022-08-09T10:14:48.087Z,1.88
2022-08-09T10:17:40.203Z,2.38
2022-08-09T10:20:27.646Z,2.00
2022-08-09T10:23:13.499Z,1.95
2022-08-09T10:26:07.982Z,2.30
2022-08-09T10:28:30.224Z,2.15
2022-08-09T10:34:09.658Z,2.17
2022-08-09T10:36:35.463Z,2.13
2022-08-09T10:39:03.396Z,1.83
2022-08-09T10:41:42.016Z,2.33
2022-08-09T10:44:11.343Z,2.10
2022-08-09T10:47:00.665Z,2.13
2022-08-09T10:49:50.829Z,1.90
2022-08-09T10:52:44.960Z,1.92
2022-08-09T10:55:23.816Z,2.55
2022-08-09T10:57:55.375Z,2.40
2022-08-09T11:00:35.319Z,2.30
2022-08-09T11:03:18.170Z,2.42
2022-08-09T11:06:24.071Z,2.17
2022-08-09T11:08:53.952Z,2.00
2022-08-09T11:11:23.234Z,2.80
2022-08-09T11:14:28.331Z,2.20
2022-08-09T11:16:56.439Z,1.92
2022-08-09T11:20:11.021Z,2.25
2022-08-09T11:22:59.620Z,2.50
2022-08-09T11:25:48.002Z,2.40
2022-08-09T11:28:56.724Z,2.10
2022-08-09T11:31:52.566Z,2.10
2022-08-09T11:34:30.898Z,3.03
2022-08-09T11:37:01.160Z,2.97
2022-08-09T11:39:37.802Z,1.95
2022-08-09T11:42:14.737Z,2.20
2022-08-09T11:44:46.094Z,1.95
2022-08-09T11:47:14.370Z,2.50
2022-08-09T11:50:55.325Z,1.40
2022-08-09T11:53:28.226Z,2.25
2022-08-09T11:56:41.855Z,2.53
2022-08-09T11:59:14.097Z,2.85
2022-08-09T12:02:16.155Z,2.15
2022-08-09T12:04:37.389Z,2.97
2022-08-09T12:07:07.951Z,2.30
2022-08-09T12:09:37.622Z,2.30
2022-08-09T12:12:12.378Z,2.30
2022-08-09T12:15:08.065Z,2.30
2022-08-09T12:17:42.810Z,2.00
2022-08-09T12:20:16.331Z,2.35
2022-08-09T12:22:48.095Z,1.93
2022-08-09T12:25:31.813Z,1.48
2022-08-09T12:28:59.953Z,2.60
2022-08-09T12:31:02.811Z,2.10
2022-08-09T12:33:58.557Z,1.90
2022-08-09T12:36:32.303Z,1.70
2022-08-09T12:39:02.401Z,1.85
2022-08-09T12:41:39.035Z,2.15
2022-08-09T12:44:09.716Z,1.92
2022-08-09T12:46:41.103Z,1.95
2022-08-09T12:49:09.481Z,1.90
2022-08-09T12:52:00.405Z,2.00
2022-08-09T12:54:24.491Z,2.15
2022-08-09T12:56:54.681Z,2.45
2022-08-09T12:59:23.891Z,2.00
2022-08-09T13:02:07.076Z,2.10
2022-08-09T13:04:38.754Z,2.20
2022-08-09T13:07:14.674Z,1.98
2022-08-09T13:09:52.882Z,1.90
2022-08-09T13:12:28.054Z,1.90
2022-08-09T13:15:04.839Z,1.77
2022-08-09T13:18:02.492Z,1.80
2022-08-09T13:20:37.756Z,1.30
2022-08-09T13:24:16.390Z,1.83
2022-08-09T13:26:10.427Z,1.80
2022-08-09T13:28:39.817Z,1.50
2022-08-09T13:32:13.206Z,1.67
2022-08-09T13:33:58.450Z,1.92
2022-08-09T13:36:41.414Z,2.00
2022-08-09T13:41:19.555Z,2.13
2022-08-09T13:42:02.668Z,2.00
2022-08-09T13:44:31.106Z,2.15
2022-08-09T13:47:27.706Z,1.83
2022-08-09T13:49:58.092Z,1.38
2022-08-09T13:52:29.655Z,2.30
2022-08-09T13:54:59.047Z,1.70
2022-08-09T13:57:37.112Z,1.70
2022-08-09T14:00:10.664Z,1.92
2022-08-09T14:02:42.804Z,1.50
2022-08-09T14:05:57.258Z,1.50
2022-08-09T14:08:17.577Z,1.97
2022-08-09T14:10:51.834Z,1.80
2022-08-09T14:13:27.763Z,1.80
2022-08-09T14:16:09.165Z,2.35
2022-08-09T14:18:38.866Z,1.80
2022-08-09T14:21:17.149Z,1.83
2022-08-09T14:23:54.576Z,1.85
2022-08-09T14:26:31.659Z,2.00
2022-08-09T14:29:00.455Z,2.08
2022-08-09T14:31:36.207Z,2.25
2022-08-09T14:34:17.540Z,1.70
2022-08-09T14:36:56.160Z,1.80
2022-08-09T14:39:45.538Z,2.47
2022-08-09T14:42:11.112Z,2.30
2022-08-09T14:44:48.202Z,2.17
2022-08-09T14:47:39.809Z,1.87
2022-08-09T14:50:04.955Z,1.80
2022-08-09T14:52:34.652Z,2.50
2022-08-09T14:55:03.358Z,1.98
2022-08-09T14:57:31.732Z,2.33
2022-08-09T14:59:59.872Z,2.10
2022-08-09T15:02:28.532Z,2.08
2022-08-09T15:04:57.534Z,2.10
2022-08-09T15:07:26.220Z,2.00
2022-08-09T15:10:07.443Z,2.10
2022-08-09T15:12:38.920Z,2.30
2022-08-09T15:15:13.442Z,2.30
2022-08-09T15:17:42.078Z,2.70
2022-08-09T15:20:15.458Z,2.08
2022-08-09T15:22:59.768Z,2.00
2022-08-09T15:25:48.657Z,2.40
2022-08-09T15:28:26.227Z,2.40
2022-08-09T15:31:08.616Z,2.53
2022-08-09T15:34:27.394Z,2.00
2022-08-09T15:36:29.426Z,2.22
2022-08-09T15:38:58.855Z,2.23
2022-08-09T15:41:31.354Z,2.30
2022-08-09T15:44:00.514Z,1.95
2022-08-09T15:46:34.030Z,2.28
2022-08-09T15:49:22.054Z,2.50
2022-08-09T15:52:03.738Z,2.40
2022-08-09T15:54:46.364Z,2.53
2022-08-09T15:57:19.002Z,2.53
2022-08-09T16:00:02.670Z,2.47
2022-08-09T16:02:30.083Z,2.25
2022-08-09T16:04:57.523Z,1.97
2022-08-09T16:07:25.862Z,1.92
2022-08-09T16:10:04.534Z,2.33
2022-08-09T16:12:34.616Z,2.00
2022-08-09T16:15:04.752Z,2.70
2022-08-09T16:17:52.302Z,2.30
2022-08-09T16:20:19.776Z,2.50
2022-08-09T16:22:57.562Z,2.50
2022-08-09T16:25:36.794Z,2.40
2022-08-09T16:28:12.054Z,1.88
2022-08-09T16:30:44.717Z,2.27
2022-08-09T16:33:26.404Z,2.42
2022-08-09T16:35:59.093Z,2.20
2022-08-09T16:38:29.683Z,2.70
2022-08-09T16:40:57.826Z,2.55
2022-08-09T16:43:26.834Z,2.70
2022-08-09T16:45:55.115Z,2.40
2022-08-09T16:48:42.195Z,2.17
2022-08-09T16:51:13.668Z,1.92
2022-08-09T16:54:09.140Z,2.17
2022-08-09T16:56:30.872Z,2.40
2022-08-09T16:59:01.176Z,2.42
2022-08-09T17:01:33.824Z,2.22
2022-08-09T17:04:01.784Z,2.22
2022-08-09T17:06:33.209Z,2.20
2022-08-09T17:09:43.885Z,2.40
2022-08-09T17:11:52.713Z,1.95
2022-08-09T17:14:27.511Z,1.98
2022-08-09T17:16:59.758Z,2.17
2022-08-09T17:19:46.461Z,2.00
2022-08-09T17:22:24.051Z,1.80
2022-08-09T17:25:03.841Z,2.28
2022-08-09T17:27:32.984Z,2.45
2022-08-09T17:30:06.786Z,2.30
2022-08-09T17:32:38.308Z,2.15
2022-08-09T17:35:12.068Z,2.30
2022-08-09T17:38:02.177Z,1.77
2022-08-09T17:40:29.276Z,2.53
2022-08-09T17:42:59.514Z,2.20
2022-08-09T17:45:45.578Z,2.20
2022-08-09T17:48:16.690Z,2.60
2022-08-09T17:50:56.444Z,2.20
2022-08-09T17:53:27.505Z,2.10
2022-08-09T17:56:03.306Z,2.20
2022-08-09T17:58:35.142Z,2.10
2022-08-09T18:01:04.093Z,2.00
2022-08-09T18:03:31.802Z,2.03
2022-08-09T18:06:00.872Z,2.20
2022-08-09T18:08:29.423Z,1.90
2022-08-09T18:11:00.918Z,2.15
2022-08-09T18:13:43.037Z,2.40
2022-08-09T18:16:29.109Z,2.60
2022-08-09T18:18:57.291Z,2.15
2022-08-09T18:21:27.188Z,2.20
2022-08-09T18:24:10.418Z,2.50
2022-08-09T18:26:46.235Z,2.20
2022-08-09T18:30:40.546Z,2.28
2022-08-09T18:32:05.353Z,2.75
2022-08-09T18:34:35.114Z,2.38
2022-08-09T18:37:03.219Z,2.38
2022-08-09T18:39:32.245Z,2.20
2022-08-09T18:42:05.206Z,2.65
2022-08-09T18:44:35.672Z,2.38
2022-08-09T18:47:09.703Z,2.70
2022-08-09T18:49:43.037Z,2.42
2022-08-09T18:52:14.588Z,2.73
2022-08-09T18:54:52.660Z,2.67
2022-08-09T18:57:22.353Z,2.15
2022-08-09T18:59:54.378Z,2.50
2022-08-09T19:02:31.913Z,2.38
2022-08-09T19:05:04.197Z,2.50
2022-08-09T19:08:04.768Z,2.40
2022-08-09T19:10:37.375Z,2.70
2022-08-09T19:13:17.076Z,2.40
2022-08-09T19:15:51.527Z,2.20
2022-08-09T19:18:33.232Z,2.50
2022-08-09T19:21:09.396Z,2.38
2022-08-09T19:24:36.457Z,2.53
2022-08-09T19:26:31.094Z,2.50
2022-08-09T19:29:01.773Z,2.40
2022-08-09T19:31:30.750Z,2.43
2022-08-09T19:34:21.922Z,2.40
2022-08-09T19:36:51.198Z,2.65
2022-08-09T19:39:20.839Z,2.63
2022-08-09T19:42:06.855Z,2.20
2022-08-09T19:44:35.321Z,2.30
2022-08-09T19:47:03.825Z,2.17
2022-08-09T19:50:48.473Z,2.35
2022-08-09T19:52:21.483Z,2.38
2022-08-09T19:54:48.961Z,2.20
2022-08-09T19:57:16.551Z,1.87
2022-08-09T20:00:05.543Z,2.20
2022-08-09T20:04:07.558Z,2.08
2022-08-09T20:05:23.641Z,2.05
2022-08-09T20:07:59.520Z,2.33
2022-08-09T20:10:34.921Z,1.93
2022-08-09T20:13:06.582Z,1.98
2022-08-09T20:16:38.342Z,2.45
2022-08-09T20:18:23.080Z,2.60
2022-08-09T20:20:57.711Z,2.67
2022-08-09T20:23:39.225Z,2.03
2022-08-09T20:26:07.974Z,2.33
2022-08-09T20:28:47.885Z,2.40
2022-08-09T20:31:15.765Z,2.47
2022-08-09T20:33:44.061Z,2.00
2022-08-09T20:36:14.268Z,3.33
2022-08-09T20:39:27.959Z,2.42
2022-08-09T20:41:35.060Z,2.38
2022-08-09T20:44:06.958Z,2.33
2022-08-09T20:46:42.711Z,2.30
2022-08-09T20:49:12.775Z,2.17
2022-08-09T20:51:42.321Z,2.70
2022-08-09T20:54:12.740Z,2.05
2022-08-09T20:56:47.076Z,2.05
2022-08-09T20:59:17.209Z,2.47
2022-08-09T21:01:50.426Z,1.80
2022-08-09T21:05:51.967Z,2.10
2022-08-09T21:07:11.434Z,2.30
2022-08-09T21:09:45.239Z,2.65
2022-08-09T21:14:49.008Z,2.00
2022-08-09T21:18:21.862Z,1.98
2022-08-09T21:20:22.700Z,1.92
2022-08-09T21:22:54.986Z,2.22
2022-08-09T21:25:44.338Z,2.33
2022-08-09T21:28:22.135Z,2.40
2022-08-09T21:31:16.853Z,2.40
2022-08-09T21:33:50.410Z,2.35
2022-08-09T21:36:18.955Z,1.85
2022-08-09T21:38:56.802Z,2.17
2022-08-09T21:42:04.476Z,2.63
2022-08-09T21:44:15.418Z,2.00
2022-08-09T21:47:01.769Z,2.13
2022-08-09T21:49:29.369Z,2.45
2022-08-09T21:52:16.620Z,1.90
2022-08-09T21:54:50.706Z,2.33
2022-08-09T21:57:38.844Z,2.00
2022-08-09T22:00:25.361Z,2.25
2022-08-09T22:02:58.786Z,2.30
2022-08-09T22:05:35.552Z,2.30
2022-08-09T22:08:05.836Z,2.40
2022-08-09T22:10:35.423Z,2.30
2022-08-09T22:13:23.703Z,2.33
2022-08-09T22:15:58.936Z,2.28
2022-08-09T22:18:30.845Z,2.72
2022-08-09T22:21:00.684Z,2.57
2022-08-09T22:23:35.531Z,2.58
2022-08-09T22:26:34.152Z,2.75
2022-08-09T22:29:06.778Z,2.60
2022-08-09T22:31:35.306Z,2.45
2022-08-09T22:34:02.832Z,2.93
2022-08-09T22:36:37.426Z,2.83
2022-08-09T22:39:47.091Z,2.70
2022-08-09T22:42:02.631Z,2.67
2022-08-09T22:44:32.840Z,2.63
2022-08-09T22:48:18.265Z,2.43
2022-08-09T22:49:51.965Z,2.35
2022-08-09T22:52:20.020Z,2.30
2022-08-09T22:54:47.685Z,2.72
2022-08-09T22:57:16.559Z,2.40
2022-08-09T22:59:57.073Z,2.33
2022-08-09T23:02:27.487Z,2.60
2022-08-09T23:04:56.850Z,2.20
2022-08-09T23:08:21.750Z,2.72
2022-08-09T23:10:30.908Z,2.90
2022-08-09T23:13:00.124Z,2.60
2022-08-09T23:15:28.563Z,2.83
2022-08-09T23:17:56.326Z,2.80
2022-08-09T23:20:26.001Z,3.70
2022-08-09T23:22:53.480Z,2.95
2022-08-09T23:25:21.008Z,2.70
2022-08-09T23:28:14.033Z,2.83
2022-08-09T23:30:37.267Z,2.67
2022-08-09T23:33:04.755Z,2.95
2022-08-09T23:36:04.622Z,3.13
2022-08-09T23:38:20.446Z,2.93
2022-08-09T23:40:51.143Z,3.47
2022-08-09T23:43:19.114Z,3.45
2022-08-09T23:45:48.286Z,2.90
2022-08-09T23:48:15.827Z,2.97
2022-08-09T23:50:43.294Z,3.23
2022-08-09T23:53:10.826Z,3.13
2022-08-09T23:55:39.912Z,2.85
2022-08-09T23:58:27.481Z,3.30
